createdAt,value
2019-03-27T00:01:13.082Z,20.85
2019-03-27T00:03:41.312Z,24.27
2019-03-27T00:06:09.536Z,20.62
2019-03-27T00:08:37.768Z,20.75
2019-03-27T00:11:05.988Z,19.60
2019-03-27T00:13:34.228Z,22.17
2019-03-27T00:16:02.457Z,19.10
2019-03-27T00:18:30.688Z,19.92
2019-03-27T00:20:58.908Z,21.55
2019-03-27T00:23:27.148Z,18.77
2019-03-27T00:25:55.664Z,21.30
2019-03-27T00:28:23.900Z,20.23
2019-03-27T00:30:52.128Z,23.12
2019-03-27T00:33:20.360Z,20.92
2019-03-27T00:35:48.610Z,22.20
2019-03-27T00:38:16.833Z,21.07
2019-03-27T00:40:45.068Z,25.20
2019-03-27T00:43:13.284Z,24.37
2019-03-27T00:45:41.544Z,25.95
2019-03-27T00:48:09.768Z,26.25
2019-03-27T00:50:37.996Z,21.12
2019-03-27T00:53:06.220Z,23.18
2019-03-27T00:55:34.476Z,20.17
2019-03-27T00:58:02.701Z,23.25
2019-03-27T01:00:46.205Z,22.05
2019-03-27T01:03:14.424Z,21.35
2019-03-27T01:05:42.664Z,24.57
2019-03-27T01:08:10.884Z,20.82
2019-03-27T01:10:39.409Z,20.97
2019-03-27T01:13:07.632Z,20.92
2019-03-27T01:15:40.172Z,23.40
2019-03-27T01:18:06.089Z,23.83
2019-03-27T01:20:34.642Z,21.93
2019-03-27T01:23:02.864Z,22.15
2019-03-27T01:25:31.116Z,21.42
2019-03-27T01:27:59.332Z,22.30
2019-03-27T01:30:27.584Z,22.13
2019-03-27T01:32:55.846Z,24.32
2019-03-27T01:35:24.078Z,21.48
2019-03-27T01:37:52.592Z,18.55
2019-03-27T01:40:20.828Z,22.13
2019-03-27T01:42:49.043Z,19.32
2019-03-27T01:45:17.337Z,20.97
2019-03-27T01:47:45.595Z,26.50
2019-03-27T01:50:13.831Z,22.62
2019-03-27T01:52:42.056Z,25.05
2019-03-27T01:55:10.315Z,22.20
2019-03-27T01:57:38.528Z,21.90
2019-03-27T02:00:07.127Z,20.17
2019-03-27T02:02:35.332Z,26.68
2019-03-27T02:05:05.128Z,23.75
2019-03-27T02:07:33.356Z,24.65
2019-03-27T02:10:01.604Z,20.95
2019-03-27T02:12:29.816Z,20.20
2019-03-27T02:14:58.047Z,21.15
2019-03-27T02:17:26.267Z,22.85
2019-03-27T02:19:54.814Z,24.35
2019-03-27T02:22:23.037Z,21.30
2019-03-27T02:24:51.275Z,25.85
2019-03-27T02:27:19.546Z,21.68
2019-03-27T02:29:47.816Z,23.20
2019-03-27T02:32:20.263Z,23.32
2019-03-27T02:34:46.009Z,27.62
2019-03-27T02:37:14.238Z,20.88
2019-03-27T02:39:42.472Z,22.15
2019-03-27T02:42:10.865Z,22.82
2019-03-27T02:44:39.115Z,23.20
2019-03-27T02:47:07.349Z,22.87
2019-03-27T02:49:35.586Z,21.85
2019-03-27T02:52:03.880Z,24.90
2019-03-27T02:54:32.109Z,25.37
2019-03-27T02:57:00.346Z,25.12
2019-03-27T02:59:28.570Z,24.95
2019-03-27T03:01:56.799Z,24.67
2019-03-27T03:04:25.330Z,23.98
2019-03-27T03:06:53.812Z,27.02
2019-03-27T03:09:22.029Z,22.05
2019-03-27T03:11:50.285Z,27.52
2019-03-27T03:14:18.577Z,26.35
2019-03-27T03:16:46.841Z,26.57
2019-03-27T03:19:15.065Z,26.05
2019-03-27T03:21:43.288Z,31.75
2019-03-27T03:24:11.523Z,27.50
2019-03-27T03:26:39.752Z,22.80
2019-03-27T03:29:07.987Z,25.37
2019-03-27T03:31:36.319Z,23.42
2019-03-27T03:34:04.605Z,25.15
2019-03-27T03:36:32.902Z,24.30
2019-03-27T03:39:01.227Z,27.05
2019-03-27T03:41:29.469Z,25.95
2019-03-27T03:43:57.694Z,22.02
2019-03-27T03:46:25.963Z,21.80
2019-03-27T03:48:54.185Z,21.75
2019-03-27T03:51:22.424Z,21.73
2019-03-27T03:53:50.644Z,22.35
2019-03-27T03:56:18.892Z,19.15
2019-03-27T03:58:47.163Z,20.12
2019-03-27T04:01:34.902Z,19.87
2019-03-27T04:04:03.151Z,22.30
2019-03-27T04:06:31.709Z,20.27
2019-03-27T04:08:59.938Z,25.57
2019-03-27T04:11:28.170Z,18.00
2019-03-27T04:13:56.420Z,19.27
2019-03-27T04:16:24.657Z,18.35
2019-03-27T04:18:53.190Z,23.40
2019-03-27T04:21:21.453Z,21.30
2019-03-27T04:24:09.111Z,19.15
2019-03-27T04:26:37.676Z,21.45
2019-03-27T04:29:06.009Z,19.75
2019-03-27T04:31:34.280Z,22.13
2019-03-27T04:34:02.526Z,25.90
2019-03-27T04:36:30.779Z,22.95
2019-03-27T04:38:59.008Z,21.17
2019-03-27T04:41:27.537Z,22.37
2019-03-27T04:43:55.761Z,23.12
2019-03-27T04:46:24.068Z,18.67
2019-03-27T04:48:52.309Z,23.07
2019-03-27T04:51:20.541Z,18.57
2019-03-27T04:53:48.763Z,24.92
2019-03-27T04:56:17.004Z,25.05
2019-03-27T04:58:45.244Z,20.77
2019-03-27T05:01:13.481Z,20.25
2019-03-27T05:03:41.704Z,25.27
2019-03-27T05:06:09.944Z,25.20
2019-03-27T05:08:38.185Z,21.17
2019-03-27T05:11:26.104Z,23.22
2019-03-27T05:13:54.504Z,21.37
2019-03-27T05:16:23.081Z,23.95
2019-03-27T05:18:51.284Z,21.90
2019-03-27T05:21:19.517Z,21.33
2019-03-27T05:23:47.821Z,22.58
2019-03-27T05:26:16.066Z,25.02
2019-03-27T05:28:44.280Z,40.45
2019-03-27T05:31:12.508Z,19.17
2019-03-27T05:33:40.737Z,20.43
2019-03-27T05:36:08.995Z,20.10
2019-03-27T05:38:37.204Z,20.85
2019-03-27T05:41:05.515Z,21.45
2019-03-27T05:43:33.749Z,23.32
2019-03-27T05:46:02.304Z,22.20
2019-03-27T05:48:30.528Z,23.67
2019-03-27T05:50:58.794Z,19.00
2019-03-27T05:53:27.026Z,21.27
2019-03-27T05:55:55.291Z,20.60
2019-03-27T05:58:23.510Z,30.45
2019-03-27T06:00:51.741Z,21.68
2019-03-27T06:03:20.001Z,22.10
2019-03-27T06:05:48.298Z,19.32
2019-03-27T06:08:16.548Z,19.17
2019-03-27T06:10:44.774Z,21.77
2019-03-27T06:13:13.005Z,21.17
2019-03-27T06:16:00.803Z,21.25
2019-03-27T06:18:29.092Z,18.80
2019-03-27T06:20:57.420Z,22.98
2019-03-27T06:23:25.658Z,24.00
2019-03-27T06:25:53.884Z,21.42
2019-03-27T06:28:22.120Z,21.65
2019-03-27T06:30:50.339Z,24.25
2019-03-27T06:33:18.572Z,18.82
2019-03-27T06:35:46.814Z,21.05
2019-03-27T06:38:15.035Z,23.75
2019-03-27T06:40:43.253Z,27.35
2019-03-27T06:43:11.536Z,30.75
2019-03-27T06:45:40.356Z,31.37
2019-03-27T06:48:08.593Z,29.15
2019-03-27T06:50:36.813Z,30.70
2019-03-27T06:53:05.052Z,33.30
2019-03-27T06:55:33.300Z,30.70
2019-03-27T06:58:01.536Z,36.88
2019-03-27T07:00:34.808Z,33.23
2019-03-27T07:03:03.040Z,35.55
2019-03-27T07:05:31.617Z,30.68
2019-03-27T07:08:00.305Z,36.30
2019-03-27T07:10:28.505Z,34.98
2019-03-27T07:12:56.766Z,32.80
2019-03-27T07:15:24.985Z,29.90
2019-03-27T07:17:53.325Z,32.85
2019-03-27T07:20:21.563Z,36.93
2019-03-27T07:22:49.798Z,38.55
2019-03-27T07:25:18.027Z,33.75
2019-03-27T07:27:46.256Z,33.00
2019-03-27T07:30:14.497Z,36.28
2019-03-27T07:32:42.756Z,31.82
2019-03-27T07:35:11.216Z,41.02
2019-03-27T07:37:39.501Z,32.23
2019-03-27T07:40:08.203Z,33.88
2019-03-27T07:42:36.425Z,33.05
2019-03-27T07:45:06.784Z,32.28
2019-03-27T07:47:35.088Z,44.48
2019-03-27T07:50:03.779Z,36.05
2019-03-27T07:52:32.062Z,34.45
2019-03-27T07:55:00.436Z,35.90
2019-03-27T07:57:28.737Z,33.75
2019-03-27T07:59:56.961Z,33.15
2019-03-27T08:02:25.208Z,32.63
2019-03-27T08:04:53.481Z,31.25
2019-03-27T08:07:27.007Z,37.48
2019-03-27T08:09:51.668Z,30.62
2019-03-27T08:12:19.884Z,28.07
2019-03-27T08:14:48.481Z,33.05
2019-03-27T08:17:16.705Z,32.70
2019-03-27T08:19:44.940Z,34.95
2019-03-27T08:22:13.161Z,31.73
2019-03-27T08:24:41.548Z,29.15
2019-03-27T08:27:09.770Z,32.08
2019-03-27T08:29:38.011Z,33.02
2019-03-27T08:32:06.232Z,31.62
2019-03-27T08:34:34.780Z,29.75
2019-03-27T08:37:03.009Z,33.02
2019-03-27T08:39:31.281Z,30.68
2019-03-27T08:41:59.505Z,27.95
2019-03-27T08:44:27.807Z,31.60
2019-03-27T08:46:56.200Z,32.13
2019-03-27T08:49:24.444Z,37.73
2019-03-27T08:51:52.697Z,30.80
2019-03-27T08:54:21.916Z,31.27
2019-03-27T08:56:50.162Z,32.35
2019-03-27T08:59:18.404Z,33.67
2019-03-27T09:01:46.634Z,30.65
2019-03-27T09:04:14.868Z,31.62
2019-03-27T09:06:43.141Z,26.95
2019-03-27T09:09:11.380Z,27.90
2019-03-27T09:11:39.620Z,24.10
2019-03-27T09:14:07.936Z,25.15
2019-03-27T09:16:36.501Z,24.80
2019-03-27T09:19:04.802Z,30.40
2019-03-27T09:21:33.040Z,25.00
2019-03-27T09:24:01.292Z,25.85
2019-03-27T09:26:29.600Z,30.35
2019-03-27T09:28:57.837Z,31.37
2019-03-27T09:31:26.081Z,22.22
2019-03-27T09:33:54.312Z,24.43
2019-03-27T09:36:22.571Z,24.98
2019-03-27T09:38:50.821Z,26.70
2019-03-27T09:41:21.451Z,21.75
2019-03-27T09:43:49.032Z,21.97
2019-03-27T09:46:17.292Z,21.77
2019-03-27T09:48:45.511Z,23.18
2019-03-27T09:51:13.745Z,20.77
2019-03-27T09:53:41.984Z,21.02
2019-03-27T09:56:19.088Z,15.80
2019-03-27T09:58:40.176Z,18.57
2019-03-27T10:01:08.404Z,21.68
2019-03-27T10:03:36.707Z,20.68
2019-03-27T10:06:04.966Z,20.88
2019-03-27T10:08:33.485Z,17.20
2019-03-27T10:11:01.717Z,18.42
2019-03-27T10:13:29.951Z,20.10
2019-03-27T10:15:58.168Z,21.40
2019-03-27T10:18:26.421Z,20.32
2019-03-27T10:20:54.961Z,16.52
2019-03-27T10:23:23.445Z,17.37
2019-03-27T10:25:51.673Z,17.90
2019-03-27T10:28:19.929Z,19.57
2019-03-27T10:30:48.172Z,13.95
2019-03-27T10:33:16.418Z,18.62
2019-03-27T10:35:44.643Z,18.45
2019-03-27T10:38:13.056Z,20.50
2019-03-27T10:40:41.297Z,20.15
2019-03-27T10:43:09.556Z,19.60
2019-03-27T10:45:38.258Z,16.15
2019-03-27T10:48:06.480Z,16.02
2019-03-27T10:50:34.728Z,16.65
2019-03-27T10:53:02.969Z,12.88
2019-03-27T10:55:34.336Z,14.15
2019-03-27T10:58:01.172Z,16.05
2019-03-27T11:00:29.400Z,14.70
2019-03-27T11:02:57.628Z,14.40
2019-03-27T11:05:25.871Z,15.18
2019-03-27T11:07:54.121Z,13.90
2019-03-27T11:10:22.345Z,16.95
2019-03-27T11:12:50.926Z,15.25
2019-03-27T11:15:19.152Z,16.37
2019-03-27T11:17:47.394Z,15.05
2019-03-27T11:20:15.625Z,9.60
2019-03-27T11:22:43.875Z,10.53
2019-03-27T11:25:12.096Z,12.20
2019-03-27T11:27:40.328Z,7.50
2019-03-27T11:30:08.570Z,5.95
2019-03-27T11:32:36.804Z,6.25
2019-03-27T11:35:05.118Z,7.30
2019-03-27T11:37:33.676Z,10.90
2019-03-27T11:40:02.231Z,7.85
2019-03-27T11:42:30.473Z,8.35
2019-03-27T11:44:58.688Z,6.17
2019-03-27T11:47:26.920Z,7.47
2019-03-27T11:49:55.140Z,9.58
2019-03-27T11:52:23.388Z,9.40
2019-03-27T11:54:51.609Z,5.35
2019-03-27T11:57:19.824Z,5.50
2019-03-27T11:59:53.780Z,5.78
2019-03-27T12:02:18.024Z,6.50
2019-03-27T12:04:46.279Z,7.22
2019-03-27T12:07:14.506Z,5.80
2019-03-27T12:09:42.732Z,6.97
2019-03-27T12:12:10.955Z,6.42
2019-03-27T12:14:39.266Z,7.40
2019-03-27T12:17:07.480Z,7.47
2019-03-27T12:19:37.885Z,6.65
2019-03-27T12:22:05.680Z,8.18
2019-03-27T12:24:34.215Z,8.35
2019-03-27T12:27:02.438Z,9.65
2019-03-27T12:29:30.669Z,9.48
2019-03-27T12:31:58.917Z,9.73
2019-03-27T12:34:27.516Z,10.60
2019-03-27T12:36:55.745Z,8.03
2019-03-27T12:39:23.993Z,8.73
2019-03-27T12:41:52.229Z,9.53
2019-03-27T12:44:20.744Z,7.80
2019-03-27T12:46:51.854Z,11.75
2019-03-27T12:49:19.739Z,6.42
2019-03-27T12:51:47.957Z,6.03
2019-03-27T12:54:16.188Z,8.15
2019-03-27T12:56:44.419Z,6.62
2019-03-27T12:59:12.650Z,6.10
2019-03-27T13:01:40.881Z,7.12
2019-03-27T13:04:09.117Z,4.83
2019-03-27T13:06:37.400Z,4.55
2019-03-27T13:09:07.188Z,6.92
2019-03-27T13:11:36.883Z,2.50
2019-03-27T13:14:05.531Z,4.00
2019-03-27T13:16:33.874Z,4.08
2019-03-27T13:19:02.100Z,6.15
2019-03-27T13:21:30.332Z,3.05
2019-03-27T13:23:58.588Z,4.75
2019-03-27T13:26:26.996Z,4.03
2019-03-27T13:28:55.407Z,4.50
2019-03-27T13:31:23.649Z,5.12
2019-03-27T13:33:51.891Z,4.05
2019-03-27T13:36:20.473Z,5.05
2019-03-27T13:38:48.703Z,4.37
2019-03-27T13:41:16.940Z,7.40
2019-03-27T13:43:45.176Z,4.28
2019-03-27T13:46:13.400Z,4.40
2019-03-27T13:48:41.643Z,4.05
2019-03-27T13:51:09.873Z,5.87
2019-03-27T13:53:38.113Z,5.33
2019-03-27T13:56:06.328Z,5.03
2019-03-27T13:58:34.568Z,5.45
2019-03-27T14:01:02.875Z,5.37
2019-03-27T14:03:31.153Z,5.03
2019-03-27T14:05:59.688Z,5.28
2019-03-27T14:08:28.218Z,6.75
2019-03-27T14:10:56.457Z,7.37
2019-03-27T14:13:24.688Z,5.05
2019-03-27T14:15:52.921Z,7.62
2019-03-27T14:18:21.144Z,10.03
2019-03-27T14:20:49.385Z,8.95
2019-03-27T14:23:17.620Z,9.65
2019-03-27T14:25:45.857Z,13.80
2019-03-27T14:28:14.084Z,10.53
2019-03-27T14:30:48.320Z,9.10
2019-03-27T14:33:16.563Z,7.60
2019-03-27T14:35:44.849Z,6.40
2019-03-27T14:38:13.084Z,7.97
2019-03-27T14:40:41.320Z,9.25
2019-03-27T14:43:09.913Z,9.33
2019-03-27T14:45:38.140Z,8.38
2019-03-27T14:48:06.361Z,9.68
2019-03-27T14:50:34.933Z,7.37
2019-03-27T14:53:03.160Z,10.13
2019-03-27T14:55:31.393Z,8.03
2019-03-27T14:57:59.638Z,10.08
2019-03-27T15:00:27.876Z,10.00
2019-03-27T15:02:56.101Z,6.90
2019-03-27T15:05:24.336Z,8.23
2019-03-27T15:07:52.581Z,9.28
2019-03-27T15:10:20.809Z,7.25
2019-03-27T15:12:49.030Z,9.05
2019-03-27T15:15:17.269Z,9.53
2019-03-27T15:17:45.509Z,8.90
2019-03-27T15:20:14.432Z,10.10
2019-03-27T15:22:42.652Z,8.53
2019-03-27T15:25:10.897Z,10.03
2019-03-27T15:27:39.133Z,7.95
2019-03-27T15:30:12.579Z,7.90
2019-03-27T15:32:40.021Z,10.30
2019-03-27T15:35:08.253Z,8.38
2019-03-27T15:37:36.484Z,9.65
2019-03-27T15:40:05.462Z,8.10
2019-03-27T15:42:33.723Z,10.40
2019-03-27T15:45:02.329Z,7.55
2019-03-27T15:47:30.558Z,10.78
2019-03-27T15:49:58.805Z,7.95
2019-03-27T15:52:36.392Z,7.85
2019-03-27T15:54:56.987Z,8.18
2019-03-27T15:57:25.226Z,9.28
2019-03-27T15:59:53.541Z,9.20
2019-03-27T16:02:21.788Z,7.28
2019-03-27T16:04:50.012Z,7.35
2019-03-27T16:07:18.328Z,8.60
2019-03-27T16:09:46.561Z,8.95
2019-03-27T16:12:14.805Z,7.85
2019-03-27T16:14:43.088Z,8.75
2019-03-27T16:17:13.719Z,11.65
2019-03-27T16:19:41.600Z,9.20
2019-03-27T16:22:10.014Z,7.47
2019-03-27T16:24:38.282Z,9.10
2019-03-27T16:27:06.553Z,6.70
2019-03-27T16:29:34.801Z,5.72
2019-03-27T16:32:03.192Z,5.62
2019-03-27T16:34:31.447Z,7.85
2019-03-27T16:36:59.680Z,7.83
2019-03-27T16:39:27.931Z,6.95
2019-03-27T16:41:56.562Z,5.42
2019-03-27T16:44:24.869Z,7.80
2019-03-27T16:46:53.135Z,5.55
2019-03-27T16:49:21.366Z,6.72
2019-03-27T16:51:49.605Z,9.05
2019-03-27T16:54:17.824Z,6.30
2019-03-27T16:56:46.056Z,6.83
2019-03-27T16:59:14.276Z,5.75
2019-03-27T17:01:42.506Z,8.35
2019-03-27T17:04:10.726Z,8.10
2019-03-27T17:06:38.959Z,6.28
2019-03-27T17:09:07.929Z,5.58
2019-03-27T17:11:36.498Z,10.18
2019-03-27T17:14:04.732Z,4.55
2019-03-27T17:16:32.964Z,9.48
2019-03-27T17:19:01.187Z,6.50
2019-03-27T17:21:29.415Z,6.03
2019-03-27T17:23:57.644Z,5.15
2019-03-27T17:26:25.883Z,6.05
2019-03-27T17:28:54.109Z,5.70
2019-03-27T17:31:22.336Z,6.08
2019-03-27T17:33:50.559Z,7.45
2019-03-27T17:36:18.776Z,5.62
2019-03-27T17:38:47.008Z,7.65
2019-03-27T17:41:15.506Z,7.45
2019-03-27T17:43:43.742Z,6.78
2019-03-27T17:46:11.960Z,4.67
2019-03-27T17:48:40.198Z,6.35
2019-03-27T17:51:08.417Z,5.90
2019-03-27T17:53:36.653Z,5.58
2019-03-27T17:56:04.875Z,4.58
2019-03-27T17:58:33.128Z,6.15
2019-03-27T18:01:03.049Z,12.33
2019-03-27T18:03:31.293Z,6.15
2019-03-27T18:05:59.508Z,5.08
2019-03-27T18:08:27.744Z,4.90
2019-03-27T18:10:56.073Z,8.58
2019-03-27T18:13:24.313Z,11.03
2019-03-27T18:15:52.622Z,9.10
2019-03-27T18:18:20.859Z,9.98
2019-03-27T18:20:49.085Z,11.22
2019-03-27T18:23:17.349Z,10.10
2019-03-27T18:25:45.568Z,8.75
2019-03-27T18:28:14.091Z,11.50
2019-03-27T18:30:42.305Z,9.65
2019-03-27T18:33:10.620Z,12.82
2019-03-27T18:35:39.122Z,10.40
2019-03-27T18:38:07.663Z,9.50
2019-03-27T18:40:36.000Z,11.68
2019-03-27T18:43:04.422Z,14.00
2019-03-27T18:45:32.659Z,12.50
2019-03-27T18:48:00.912Z,11.53
2019-03-27T18:50:29.132Z,13.60
2019-03-27T18:52:57.400Z,13.60
2019-03-27T18:55:27.046Z,12.00
2019-03-27T18:58:00.454Z,14.93
2019-03-27T19:00:25.614Z,12.68
2019-03-27T19:02:54.264Z,17.67
2019-03-27T19:05:22.483Z,23.62
2019-03-27T19:07:50.744Z,14.20
2019-03-27T19:10:19.008Z,11.18
2019-03-27T19:12:47.264Z,13.28
2019-03-27T19:15:15.505Z,13.40
2019-03-27T19:17:43.853Z,13.38
2019-03-27T19:20:12.072Z,11.18
2019-03-27T19:22:40.323Z,14.05
2019-03-27T19:25:08.549Z,13.38
2019-03-27T19:27:36.807Z,16.05
2019-03-27T19:30:06.660Z,13.83
2019-03-27T19:32:35.000Z,14.05
2019-03-27T19:35:03.345Z,10.58
2019-03-27T19:37:31.591Z,13.13
2019-03-27T19:40:01.262Z,14.80
2019-03-27T19:42:30.060Z,16.50
2019-03-27T19:44:58.417Z,17.90
2019-03-27T19:47:26.717Z,15.50
2019-03-27T19:49:54.971Z,13.55
2019-03-27T19:52:23.473Z,15.98
2019-03-27T19:54:51.775Z,14.15
2019-03-27T19:57:20.337Z,15.45
2019-03-27T19:59:48.664Z,14.85
2019-03-27T20:02:17.116Z,14.63
2019-03-27T20:04:45.399Z,12.37
2019-03-27T20:07:13.628Z,12.90
2019-03-27T20:09:41.868Z,15.35
2019-03-27T20:12:10.092Z,13.00
2019-03-27T20:14:38.328Z,12.90
2019-03-27T20:17:06.862Z,12.50
2019-03-27T20:19:35.102Z,13.38
2019-03-27T20:22:03.328Z,13.43
2019-03-27T20:24:41.016Z,11.95
2019-03-27T20:27:01.516Z,11.45
2019-03-27T20:29:29.755Z,12.75
2019-03-27T20:31:57.985Z,13.30
2019-03-27T20:34:26.216Z,15.08
2019-03-27T20:37:13.873Z,17.10
2019-03-27T20:39:42.837Z,15.90
2019-03-27T20:42:11.220Z,16.57
2019-03-27T20:44:39.536Z,17.77
2019-03-27T20:47:07.771Z,25.57
2019-03-27T20:49:36.008Z,21.12
2019-03-27T20:52:04.236Z,20.17
2019-03-27T20:54:32.484Z,19.42
2019-03-27T20:57:00.772Z,14.93
2019-03-27T20:59:29.012Z,10.30
2019-03-27T21:01:57.241Z,12.53
2019-03-27T21:04:25.476Z,12.45
2019-03-27T21:06:53.706Z,10.88
2019-03-27T21:09:22.263Z,12.73
2019-03-27T21:11:50.480Z,11.55
2019-03-27T21:14:18.720Z,14.70
2019-03-27T21:16:46.944Z,11.63
2019-03-27T21:19:15.185Z,12.45
2019-03-27T21:21:43.404Z,11.25
2019-03-27T21:24:11.640Z,9.00
2019-03-27T21:26:39.860Z,9.15
2019-03-27T21:29:08.093Z,8.63
2019-03-27T21:31:36.657Z,10.68
2019-03-27T21:34:04.890Z,12.23
2019-03-27T21:36:33.120Z,11.78
2019-03-27T21:39:01.353Z,10.43
2019-03-27T21:41:29.573Z,9.33
2019-03-27T21:43:57.815Z,12.70
2019-03-27T21:46:26.052Z,8.08
2019-03-27T21:48:54.291Z,11.22
2019-03-27T21:51:22.520Z,8.55
2019-03-27T21:53:51.057Z,13.72
2019-03-27T21:56:19.621Z,10.43
2019-03-27T21:58:47.888Z,8.03
2019-03-27T22:01:16.480Z,8.65
2019-03-27T22:03:44.960Z,7.75
2019-03-27T22:06:13.180Z,4.85
2019-03-27T22:08:41.407Z,7.55
2019-03-27T22:11:09.629Z,8.55
2019-03-27T22:13:37.876Z,5.83
2019-03-27T22:16:06.117Z,6.25
2019-03-27T22:18:34.336Z,7.60
2019-03-27T22:21:02.571Z,7.87
2019-03-27T22:23:30.866Z,7.17
2019-03-27T22:25:59.256Z,7.12
2019-03-27T22:28:27.480Z,7.17
2019-03-27T22:30:55.790Z,7.50
2019-03-27T22:33:24.276Z,5.70
2019-03-27T22:35:52.509Z,7.60
2019-03-27T22:38:20.728Z,7.85
2019-03-27T22:40:49.032Z,8.25
2019-03-27T22:43:17.328Z,6.47
2019-03-27T22:45:45.560Z,6.90
2019-03-27T22:48:13.887Z,8.98
2019-03-27T22:50:42.440Z,7.75
2019-03-27T22:53:30.196Z,9.08
2019-03-27T22:55:58.428Z,7.35
2019-03-27T22:58:26.645Z,6.75
2019-03-27T23:00:55.244Z,6.33
2019-03-27T23:03:23.459Z,6.70
2019-03-27T23:05:51.767Z,7.25
2019-03-27T23:08:19.981Z,6.47
2019-03-27T23:10:48.218Z,5.42
2019-03-27T23:13:16.428Z,8.78
2019-03-27T23:15:45.513Z,6.50
2019-03-27T23:18:13.731Z,5.67
2019-03-27T23:20:41.958Z,5.60
2019-03-27T23:23:10.173Z,7.15
2019-03-27T23:25:38.400Z,7.78
2019-03-27T23:28:06.680Z,7.22
2019-03-27T23:30:34.908Z,6.22
2019-03-27T23:33:03.498Z,5.87
2019-03-27T23:35:32.108Z,7.58
2019-03-27T23:38:00.328Z,7.08
2019-03-27T23:40:28.559Z,6.22
2019-03-27T23:42:56.784Z,6.53
2019-03-27T23:45:25.016Z,6.62
2019-03-27T23:47:53.488Z,6.15
2019-03-27T23:50:21.723Z,7.33
2019-03-27T23:52:49.932Z,6.17
2019-03-27T23:55:18.164Z,5.87
2019-03-27T23:57:46.692Z,7.60
